createdAt,value
2018-01-15T00:00:49.093Z,17.80
2018-01-15T00:03:15.901Z,18.20
2018-01-15T00:05:42.767Z,17.90
2018-01-15T00:08:09.610Z,17.65
2018-01-15T00:10:36.457Z,17.37
2018-01-15T00:13:03.340Z,18.20
2018-01-15T00:15:30.190Z,17.33
2018-01-15T00:17:57.031Z,18.10
2018-01-15T00:20:23.904Z,18.10
2018-01-15T00:22:50.713Z,17.48
2018-01-15T00:25:17.549Z,16.67
2018-01-15T00:27:44.410Z,17.08
2018-01-15T00:30:11.561Z,18.00
2018-01-15T00:32:38.605Z,17.90
2018-01-15T00:35:05.479Z,17.00
2018-01-15T00:37:32.319Z,17.30
2018-01-15T00:39:59.154Z,16.63
2018-01-15T00:42:25.989Z,16.33
2018-01-15T00:44:53.025Z,17.17
2018-01-15T00:47:20.073Z,17.25
2018-01-15T00:49:47.165Z,16.35
2018-01-15T00:52:14.280Z,17.05
2018-01-15T00:54:41.432Z,17.33
2018-01-15T00:57:08.265Z,17.25
2018-01-15T00:59:35.094Z,17.30
2018-01-15T01:02:01.935Z,17.73
2018-01-15T01:04:29.107Z,16.77
2018-01-15T01:06:55.953Z,16.73
2018-01-15T01:09:22.797Z,17.10
2018-01-15T01:11:49.666Z,17.90
2018-01-15T01:14:16.502Z,17.08
2018-01-15T01:16:43.309Z,16.70
2018-01-15T01:19:10.178Z,17.07
2018-01-15T01:21:37.313Z,16.70
2018-01-15T01:24:04.356Z,16.67
2018-01-15T01:26:31.243Z,17.90
2018-01-15T01:28:58.352Z,16.80
2018-01-15T01:31:25.165Z,17.05
2018-01-15T01:33:52.354Z,16.85
2018-01-15T01:36:19.156Z,17.00
2018-01-15T01:38:45.969Z,16.75
2018-01-15T01:41:12.872Z,16.12
2018-01-15T01:43:39.706Z,16.05
2018-01-15T01:46:06.525Z,16.75
2018-01-15T01:48:33.410Z,16.95
2018-01-15T01:51:00.453Z,17.35
2018-01-15T01:53:27.294Z,16.53
2018-01-15T01:55:54.197Z,16.40
2018-01-15T01:58:21.293Z,16.20
2018-01-15T02:00:48.130Z,16.05
2018-01-15T02:03:14.986Z,16.55
2018-01-15T02:05:41.834Z,16.45
2018-01-15T02:08:08.866Z,16.20
2018-01-15T02:10:35.709Z,17.00
2018-01-15T02:13:02.517Z,16.35
2018-01-15T02:15:29.601Z,16.10
2018-01-15T02:17:56.758Z,17.00
2018-01-15T02:20:23.630Z,16.37
2018-01-15T02:22:50.487Z,16.17
2018-01-15T02:25:17.321Z,16.92
2018-01-15T02:27:44.165Z,15.23
2018-01-15T02:30:11.009Z,15.85
2018-01-15T02:32:38.230Z,15.60
2018-01-15T02:35:05.374Z,15.82
2018-01-15T02:37:32.521Z,17.03
2018-01-15T02:39:59.673Z,15.82
2018-01-15T02:42:26.505Z,16.27
2018-01-15T02:44:53.671Z,15.90
2018-01-15T02:47:20.534Z,16.45
2018-01-15T02:49:47.674Z,16.40
2018-01-15T02:52:14.814Z,16.90
2018-01-15T02:54:41.645Z,15.75
2018-01-15T02:57:08.810Z,16.33
2018-01-15T02:59:35.626Z,15.13
2018-01-15T03:02:02.469Z,15.18
2018-01-15T03:04:29.338Z,15.15
2018-01-15T03:06:56.181Z,16.33
2018-01-15T03:09:23.015Z,16.25
2018-01-15T03:11:50.175Z,16.58
2018-01-15T03:14:17.317Z,15.90
2018-01-15T03:16:44.272Z,15.90
2018-01-15T03:19:11.422Z,16.60
2018-01-15T03:21:38.571Z,16.08
2018-01-15T03:24:05.721Z,16.62
2018-01-15T03:26:32.566Z,15.63
2018-01-15T03:28:59.382Z,16.42
2018-01-15T03:31:26.222Z,16.37
2018-01-15T03:33:53.041Z,16.92
2018-01-15T03:36:19.904Z,15.80
2018-01-15T03:38:46.770Z,15.80
2018-01-15T03:41:13.930Z,16.50
2018-01-15T03:43:40.806Z,16.33
2018-01-15T03:46:07.718Z,15.50
2018-01-15T03:48:34.578Z,15.77
2018-01-15T03:51:01.706Z,15.80
2018-01-15T03:53:28.574Z,15.77
2018-01-15T03:55:55.406Z,15.52
2018-01-15T03:58:22.244Z,16.12
2018-01-15T04:00:49.391Z,15.60
2018-01-15T04:03:16.544Z,16.67
2018-01-15T04:05:43.694Z,15.95
2018-01-15T04:08:10.591Z,15.95
2018-01-15T04:10:37.409Z,16.02
2018-01-15T04:13:04.225Z,15.73
2018-01-15T04:15:31.096Z,17.77
2018-01-15T04:17:57.942Z,17.90
2018-01-15T04:20:24.757Z,15.80
2018-01-15T04:22:51.626Z,15.77
2018-01-15T04:25:18.466Z,15.95
2018-01-15T04:27:45.303Z,15.43
2018-01-15T04:30:12.430Z,15.35
2018-01-15T04:32:39.289Z,16.37
2018-01-15T04:35:06.138Z,16.85
2018-01-15T04:37:32.977Z,15.93
2018-01-15T04:40:00.120Z,15.65
2018-01-15T04:42:27.253Z,15.82
2018-01-15T04:44:54.147Z,16.25
2018-01-15T04:47:20.978Z,15.00
2018-01-15T04:49:48.091Z,15.40
2018-01-15T04:52:14.929Z,16.12
2018-01-15T04:54:41.746Z,16.02
2018-01-15T04:57:08.564Z,16.80
2018-01-15T04:59:35.672Z,16.48
2018-01-15T05:02:02.482Z,16.73
2018-01-15T05:04:29.293Z,15.82
2018-01-15T05:06:56.422Z,15.98
2018-01-15T05:09:23.553Z,16.27
2018-01-15T05:11:50.519Z,15.23
2018-01-15T05:14:17.374Z,16.30
2018-01-15T05:16:44.502Z,16.15
2018-01-15T05:19:11.346Z,16.60
2018-01-15T05:21:38.214Z,15.73
2018-01-15T05:24:05.017Z,16.10
2018-01-15T05:26:32.177Z,15.27
2018-01-15T05:28:59.021Z,15.73
2018-01-15T05:31:25.871Z,16.00
2018-01-15T05:33:52.710Z,16.08
2018-01-15T05:36:19.587Z,15.90
2018-01-15T05:38:46.697Z,15.90
2018-01-15T05:41:13.545Z,15.65
2018-01-15T05:43:40.373Z,15.55
2018-01-15T05:46:07.533Z,17.20
2018-01-15T05:48:34.345Z,16.00
2018-01-15T05:51:01.532Z,15.38
2018-01-15T05:53:28.334Z,15.63
2018-01-15T05:55:55.195Z,16.13
2018-01-15T05:58:22.029Z,15.45
2018-01-15T06:00:48.841Z,16.15
2018-01-15T06:03:15.890Z,15.30
2018-01-15T06:05:42.998Z,16.33
2018-01-15T06:08:10.150Z,15.70
2018-01-15T06:10:37.006Z,15.80
2018-01-15T06:13:03.866Z,16.00
2018-01-15T06:15:30.677Z,15.90
2018-01-15T06:17:57.825Z,16.17
2018-01-15T06:20:24.973Z,15.27
2018-01-15T06:22:52.021Z,14.30
2018-01-15T06:25:18.877Z,15.40
2018-01-15T06:27:45.709Z,15.80
2018-01-15T06:30:12.563Z,15.10
2018-01-15T06:32:39.600Z,16.35
2018-01-15T06:35:06.445Z,15.30
2018-01-15T06:37:33.245Z,16.57
2018-01-15T06:40:00.336Z,15.57
2018-01-15T06:42:27.169Z,15.82
2018-01-15T06:44:53.985Z,16.35
2018-01-15T06:47:20.838Z,15.65
2018-01-15T06:49:47.705Z,15.90
2018-01-15T06:52:14.583Z,15.83
2018-01-15T06:54:41.381Z,16.10
2018-01-15T06:57:08.246Z,16.17
2018-01-15T06:59:35.285Z,16.53
2018-01-15T07:02:02.332Z,15.40
2018-01-15T07:04:29.203Z,16.05
2018-01-15T07:06:56.327Z,16.08
2018-01-15T07:09:23.194Z,15.77
2018-01-15T07:11:50.033Z,14.57
2018-01-15T07:14:17.170Z,15.57
2018-01-15T07:16:44.211Z,16.58
2018-01-15T07:19:11.074Z,15.50
2018-01-15T07:21:38.211Z,15.83
2018-01-15T07:24:05.017Z,15.45
2018-01-15T07:26:31.853Z,14.20
2018-01-15T07:28:58.690Z,15.90
2018-01-15T07:31:25.500Z,15.60
2018-01-15T07:33:52.624Z,16.33
2018-01-15T07:36:19.433Z,15.10
2018-01-15T07:38:46.309Z,15.65
2018-01-15T07:41:13.151Z,14.50
2018-01-15T07:43:40.312Z,16.10
2018-01-15T07:46:07.354Z,15.07
2018-01-15T07:48:34.701Z,14.85
2018-01-15T07:51:02.252Z,15.20
2018-01-15T07:53:29.392Z,14.75
2018-01-15T07:55:56.881Z,14.95
2018-01-15T07:58:23.722Z,15.23
2018-01-15T08:00:50.579Z,14.23
2018-01-15T08:03:17.454Z,15.05
2018-01-15T08:05:44.302Z,14.80
2018-01-15T08:08:11.143Z,14.73
2018-01-15T08:10:38.241Z,13.70
2018-01-15T08:13:05.113Z,14.70
2018-01-15T08:15:31.947Z,14.43
2018-01-15T08:17:58.820Z,14.23
2018-01-15T08:20:25.644Z,14.90
2018-01-15T08:22:52.449Z,13.80
2018-01-15T08:25:19.543Z,14.85
2018-01-15T08:27:46.459Z,14.07
2018-01-15T08:30:13.336Z,14.30
2018-01-15T08:32:40.161Z,14.80
2018-01-15T08:35:07.015Z,14.48
2018-01-15T08:37:33.902Z,13.50
2018-01-15T08:40:00.776Z,13.98
2018-01-15T08:42:27.921Z,12.23
2018-01-15T08:44:54.737Z,14.05
2018-01-15T08:47:21.581Z,13.32
2018-01-15T08:49:48.423Z,13.62
2018-01-15T08:52:15.607Z,13.57
2018-01-15T08:54:42.754Z,13.13
2018-01-15T08:57:09.561Z,14.30
2018-01-15T08:59:36.369Z,13.50
2018-01-15T09:02:03.495Z,12.70
2018-01-15T09:04:30.312Z,14.00
2018-01-15T09:06:57.151Z,13.30
2018-01-15T09:09:24.333Z,14.20
2018-01-15T09:11:51.369Z,12.63
2018-01-15T09:14:18.175Z,14.20
2018-01-15T09:16:45.018Z,13.40
2018-01-15T09:19:12.120Z,13.40
2018-01-15T09:21:39.050Z,12.83
2018-01-15T09:24:05.974Z,12.25
2018-01-15T09:26:33.245Z,13.45
2018-01-15T09:29:00.099Z,13.20
2018-01-15T09:31:26.933Z,13.45
2018-01-15T09:33:53.779Z,13.75
2018-01-15T09:36:20.590Z,12.90
2018-01-15T09:38:47.462Z,12.00
2018-01-15T09:41:14.298Z,13.10
2018-01-15T09:43:41.382Z,12.60
2018-01-15T09:46:08.501Z,13.20
2018-01-15T09:48:35.328Z,12.50
2018-01-15T09:51:02.182Z,12.77
2018-01-15T09:53:29.341Z,12.07
2018-01-15T09:55:56.229Z,13.23
2018-01-15T09:58:24.162Z,11.63
2018-01-15T10:00:51.301Z,12.43
2018-01-15T10:03:18.142Z,12.50
2018-01-15T10:05:45.302Z,11.88
2018-01-15T10:08:12.134Z,11.93
2018-01-15T10:10:39.295Z,12.00
2018-01-15T10:13:06.101Z,11.20
2018-01-15T10:15:33.287Z,12.70
2018-01-15T10:18:00.442Z,12.60
2018-01-15T10:20:27.286Z,11.65
2018-01-15T10:22:54.121Z,12.10
2018-01-15T10:25:20.929Z,11.85
2018-01-15T10:27:47.775Z,11.77
2018-01-15T10:30:15.113Z,11.85
2018-01-15T10:32:42.228Z,12.05
2018-01-15T10:35:09.034Z,12.10
2018-01-15T10:37:36.209Z,11.18
2018-01-15T10:40:03.019Z,11.80
2018-01-15T10:42:29.833Z,11.65
2018-01-15T10:44:56.936Z,11.05
2018-01-15T10:47:23.753Z,11.80
2018-01-15T10:49:50.604Z,12.43
2018-01-15T10:52:17.474Z,11.57
2018-01-15T10:54:44.281Z,11.32
2018-01-15T10:57:11.123Z,12.00
2018-01-15T10:59:38.310Z,11.53
2018-01-15T11:02:05.150Z,11.40
2018-01-15T11:04:32.296Z,10.90
2018-01-15T11:06:59.171Z,10.75
2018-01-15T11:09:25.973Z,10.83
2018-01-15T11:11:53.138Z,11.00
2018-01-15T11:14:20.002Z,10.70
2018-01-15T11:16:46.817Z,10.57
2018-01-15T11:19:13.617Z,11.37
2018-01-15T11:21:40.462Z,10.50
2018-01-15T11:24:07.266Z,11.05
2018-01-15T11:26:34.405Z,11.50
2018-01-15T11:29:01.271Z,11.02
2018-01-15T11:31:28.081Z,10.60
2018-01-15T11:33:54.930Z,10.88
2018-01-15T11:36:22.073Z,9.88
2018-01-15T11:38:48.914Z,11.00
2018-01-15T11:41:16.078Z,11.88
2018-01-15T11:43:43.216Z,11.07
2018-01-15T11:46:10.066Z,10.55
2018-01-15T11:48:36.874Z,10.50
2018-01-15T11:51:03.730Z,10.40
2018-01-15T11:53:31.441Z,9.70
2018-01-15T11:55:58.570Z,10.20
2018-01-15T11:58:25.422Z,10.25
2018-01-15T12:00:52.589Z,10.20
2018-01-15T12:03:19.429Z,10.60
2018-01-15T12:05:46.553Z,9.90
2018-01-15T12:08:13.374Z,10.73
2018-01-15T12:10:40.192Z,9.65
2018-01-15T12:13:07.281Z,9.65
2018-01-15T12:15:34.232Z,10.55
2018-01-15T12:18:01.051Z,9.95
2018-01-15T12:20:27.894Z,10.90
2018-01-15T12:22:54.993Z,9.80
2018-01-15T12:25:21.814Z,10.10
2018-01-15T12:27:48.957Z,10.38
2018-01-15T12:30:15.803Z,10.85
2018-01-15T12:32:42.602Z,9.60
2018-01-15T12:35:09.472Z,10.15
2018-01-15T12:37:36.356Z,10.10
2018-01-15T12:40:03.179Z,9.73
2018-01-15T12:42:30.034Z,10.23
2018-01-15T12:44:56.871Z,10.18
2018-01-15T12:47:23.710Z,9.60
2018-01-15T12:49:50.610Z,9.95
2018-01-15T12:52:17.696Z,9.75
2018-01-15T12:54:44.744Z,9.50
2018-01-15T12:57:11.893Z,9.98
2018-01-15T12:59:38.710Z,9.30
2018-01-15T13:02:05.544Z,10.73
2018-01-15T13:04:32.378Z,10.07
2018-01-15T13:06:59.181Z,9.35
2018-01-15T13:09:26.001Z,9.30
2018-01-15T13:11:53.161Z,9.75
2018-01-15T13:14:20.007Z,10.30
2018-01-15T13:16:47.003Z,9.50
2018-01-15T13:19:14.097Z,10.00
2018-01-15T13:21:41.254Z,10.30
2018-01-15T13:24:08.402Z,9.83
2018-01-15T13:26:35.294Z,10.25
2018-01-15T13:29:02.104Z,9.85
2018-01-15T13:31:28.947Z,10.00
2018-01-15T13:33:55.777Z,10.53
2018-01-15T13:36:22.615Z,10.50
2018-01-15T13:38:49.662Z,10.20
2018-01-15T13:41:16.513Z,9.53
2018-01-15T13:43:43.334Z,9.77
2018-01-15T13:46:10.172Z,9.88
2018-01-15T13:48:37.241Z,10.00
2018-01-15T13:51:04.289Z,10.23
2018-01-15T13:53:31.443Z,9.87
2018-01-15T13:55:58.594Z,10.00
2018-01-15T13:58:25.513Z,10.15
2018-01-15T14:00:52.394Z,10.32
2018-01-15T14:03:19.242Z,10.75
2018-01-15T14:05:46.372Z,10.13
2018-01-15T14:08:13.215Z,10.30
2018-01-15T14:10:40.361Z,10.45
2018-01-15T14:13:07.179Z,10.63
2018-01-15T14:15:34.253Z,10.13
2018-01-15T14:18:01.116Z,10.10
2018-01-15T14:20:28.250Z,11.00
2018-01-15T14:22:55.053Z,9.77
2018-01-15T14:25:22.249Z,10.30
2018-01-15T14:27:49.288Z,9.53
2018-01-15T14:30:16.117Z,10.20
2018-01-15T14:32:43.191Z,10.50
2018-01-15T14:35:10.032Z,10.38
2018-01-15T14:37:36.870Z,10.27
2018-01-15T14:40:03.729Z,10.53
2018-01-15T14:42:30.876Z,9.77
2018-01-15T14:44:57.673Z,10.82
2018-01-15T14:47:24.542Z,10.30
2018-01-15T14:49:51.702Z,9.93
2018-01-15T14:52:18.741Z,10.25
2018-01-15T14:54:45.894Z,10.25
2018-01-15T14:57:12.725Z,9.50
2018-01-15T14:59:39.575Z,10.20
2018-01-15T15:02:06.662Z,10.70
2018-01-15T15:04:33.783Z,9.73
2018-01-15T15:07:00.938Z,10.32
2018-01-15T15:09:28.099Z,9.97
2018-01-15T15:11:54.953Z,10.20
2018-01-15T15:14:21.725Z,9.90
2018-01-15T15:16:48.599Z,9.07
2018-01-15T15:19:15.431Z,9.35
2018-01-15T15:21:42.616Z,9.50
2018-01-15T15:24:09.503Z,9.63
2018-01-15T15:26:36.362Z,9.70
2018-01-15T15:29:03.394Z,9.98
2018-01-15T15:31:30.292Z,10.20
2018-01-15T15:33:57.136Z,9.97
2018-01-15T15:36:23.954Z,9.80
2018-01-15T15:38:50.851Z,9.80
2018-01-15T15:41:17.704Z,9.45
2018-01-15T15:43:44.527Z,9.80
2018-01-15T15:46:11.418Z,10.50
2018-01-15T15:48:38.317Z,9.85
2018-01-15T15:51:05.464Z,10.48
2018-01-15T15:53:32.598Z,10.07
2018-01-15T15:55:59.424Z,10.33
2018-01-15T15:58:26.316Z,9.80
2018-01-15T16:00:53.159Z,10.05
2018-01-15T16:03:20.005Z,13.23
2018-01-15T16:05:46.867Z,9.77
2018-01-15T16:08:13.745Z,9.95
2018-01-15T16:10:40.803Z,9.73
2018-01-15T16:13:07.617Z,9.25
2018-01-15T16:15:34.466Z,9.40
2018-01-15T16:18:01.314Z,9.90
2018-01-15T16:20:28.166Z,9.40
2018-01-15T16:22:57.730Z,9.05
2018-01-15T16:25:24.838Z,8.40
2018-01-15T16:27:51.702Z,8.82
2018-01-15T16:30:18.821Z,9.15
2018-01-15T16:32:45.677Z,9.40
2018-01-15T16:35:12.524Z,10.13
2018-01-15T16:37:39.451Z,9.00
2018-01-15T16:40:06.310Z,8.85
2018-01-15T16:42:33.174Z,9.25
2018-01-15T16:45:00.061Z,8.93
2018-01-15T16:47:26.882Z,8.85
2018-01-15T16:49:53.699Z,9.53
2018-01-15T16:52:20.572Z,8.52
2018-01-15T16:54:47.444Z,8.90
2018-01-15T16:57:14.317Z,9.20
2018-01-15T16:59:41.169Z,9.30
2018-01-15T17:02:08.408Z,9.48
2018-01-15T17:04:35.237Z,9.70
2018-01-15T17:07:02.118Z,9.02
2018-01-15T17:09:29.234Z,9.30
2018-01-15T17:11:56.167Z,8.95
2018-01-15T17:14:23.327Z,8.65
2018-01-15T17:16:50.125Z,9.43
2018-01-15T17:19:16.931Z,9.07
2018-01-15T17:21:44.061Z,9.60
2018-01-15T17:24:11.064Z,9.70
2018-01-15T17:26:38.159Z,8.63
2018-01-15T17:29:05.315Z,9.50
2018-01-15T17:31:32.155Z,9.90
2018-01-15T17:33:58.986Z,11.00
2018-01-15T17:36:25.850Z,9.50
2018-01-15T17:38:52.687Z,9.03
2018-01-15T17:41:19.485Z,9.40
2018-01-15T17:43:46.677Z,10.05
2018-01-15T17:46:13.490Z,10.07
2018-01-15T17:48:40.569Z,9.90
2018-01-15T17:51:07.401Z,9.70
2018-01-15T17:53:34.201Z,9.88
2018-01-15T17:56:01.302Z,9.90
2018-01-15T17:58:28.447Z,9.10
2018-01-15T18:00:55.287Z,11.00
2018-01-15T18:03:22.132Z,21.25
2018-01-15T18:05:49.285Z,10.35
2018-01-15T18:08:16.333Z,9.70
2018-01-15T18:10:43.174Z,9.43
2018-01-15T18:13:10.002Z,10.20
2018-01-15T18:15:36.813Z,9.93
2018-01-15T18:18:03.625Z,9.90
2018-01-15T18:20:30.758Z,9.65
2018-01-15T18:22:57.801Z,9.20
2018-01-15T18:25:24.601Z,8.60
2018-01-15T18:27:51.658Z,9.40
2018-01-15T18:30:18.473Z,9.20
2018-01-15T18:32:45.277Z,9.30
2018-01-15T18:35:12.113Z,15.18
2018-01-15T18:37:39.279Z,13.35
2018-01-15T18:40:06.116Z,10.25
2018-01-15T18:42:32.986Z,10.10
2018-01-15T18:44:59.832Z,9.60
2018-01-15T18:47:26.692Z,8.85
2018-01-15T18:49:53.525Z,9.48
2018-01-15T18:52:20.644Z,9.77
2018-01-15T18:54:47.475Z,9.40
2018-01-15T18:57:14.302Z,9.70
2018-01-15T18:59:41.478Z,9.90
2018-01-15T19:02:08.522Z,9.32
2018-01-15T19:04:35.361Z,9.40
2018-01-15T19:07:02.203Z,8.80
2018-01-15T19:09:29.125Z,9.63
2018-01-15T19:11:55.986Z,9.20
2018-01-15T19:14:23.156Z,8.50
2018-01-15T19:16:49.970Z,8.32
2018-01-15T19:19:17.146Z,9.20
2018-01-15T19:21:43.961Z,9.10
2018-01-15T19:24:10.753Z,9.00
2018-01-15T19:26:37.873Z,9.30
2018-01-15T19:29:04.715Z,9.30
2018-01-15T19:31:31.549Z,9.00
2018-01-15T19:33:58.610Z,9.00
2018-01-15T19:36:25.466Z,9.02
2018-01-15T19:38:52.294Z,9.10
2018-01-15T19:41:19.146Z,8.60
2018-01-15T19:43:45.957Z,8.93
2018-01-15T19:46:12.798Z,8.50
2018-01-15T19:48:39.649Z,9.63
2018-01-15T19:51:06.495Z,9.70
2018-01-15T19:53:33.667Z,10.30
2018-01-15T19:56:00.502Z,10.98
2018-01-15T19:58:27.327Z,9.75
2018-01-15T20:00:54.166Z,10.18
2018-01-15T20:03:21.341Z,11.00
2018-01-15T20:05:48.489Z,11.07
2018-01-15T20:08:15.343Z,10.60
2018-01-15T20:10:42.490Z,11.73
2018-01-15T20:13:09.384Z,11.52
2018-01-15T20:15:36.185Z,12.40
2018-01-15T20:18:03.054Z,11.55
2018-01-15T20:20:29.869Z,11.90
2018-01-15T20:22:56.726Z,12.35
2018-01-15T20:25:23.618Z,12.80
2018-01-15T20:27:50.802Z,11.80
2018-01-15T20:30:17.651Z,12.20
2018-01-15T20:32:44.489Z,12.07
2018-01-15T20:35:11.638Z,11.90
2018-01-15T20:37:38.788Z,12.45
2018-01-15T20:40:05.946Z,13.18
2018-01-15T20:42:32.749Z,12.17
2018-01-15T20:44:59.612Z,12.20
2018-01-15T20:47:26.434Z,13.30
2018-01-15T20:49:53.485Z,11.95
2018-01-15T20:52:20.667Z,12.80
2018-01-15T20:54:47.529Z,12.10
2018-01-15T20:57:14.657Z,11.90
2018-01-15T20:59:41.500Z,12.05
2018-01-15T21:02:08.336Z,12.00
2018-01-15T21:04:35.186Z,12.27
2018-01-15T21:07:02.344Z,12.90
2018-01-15T21:09:29.206Z,11.65
2018-01-15T21:11:56.084Z,12.40
2018-01-15T21:14:23.173Z,12.23
2018-01-15T21:16:50.326Z,12.10
2018-01-15T21:19:17.138Z,12.15
2018-01-15T21:21:43.941Z,12.05
2018-01-15T21:24:10.810Z,12.48
2018-01-15T21:26:37.658Z,12.43
2018-01-15T21:29:04.748Z,12.43
2018-01-15T21:31:31.859Z,11.40
2018-01-15T21:33:58.681Z,11.88
2018-01-15T21:36:25.520Z,11.55
2018-01-15T21:38:52.629Z,11.85
2018-01-15T21:41:19.489Z,11.60
2018-01-15T21:43:46.322Z,12.32
2018-01-15T21:46:13.472Z,11.73
2018-01-15T21:48:40.319Z,11.00
2018-01-15T21:51:07.154Z,11.55
2018-01-15T21:53:34.313Z,11.10
2018-01-15T21:56:01.861Z,12.45
2018-01-15T21:58:28.703Z,12.60
2018-01-15T22:00:55.566Z,11.95
2018-01-15T22:03:22.697Z,11.82
2018-01-15T22:05:49.538Z,11.35
2018-01-15T22:08:17.321Z,11.07
2018-01-15T22:10:44.141Z,12.27
2018-01-15T22:13:10.965Z,12.23
2018-01-15T22:15:37.801Z,12.20
2018-01-15T22:18:04.885Z,12.75
2018-01-15T22:20:31.731Z,13.10
2018-01-15T22:22:58.557Z,12.50
2018-01-15T22:25:25.375Z,12.60
2018-01-15T22:27:52.210Z,12.30
2018-01-15T22:30:19.037Z,13.00
2018-01-15T22:32:46.144Z,13.13
2018-01-15T22:35:13.302Z,13.60
2018-01-15T22:37:40.162Z,13.30
2018-01-15T22:40:07.289Z,13.62
2018-01-15T22:42:34.109Z,14.40
2018-01-15T22:45:01.291Z,14.57
2018-01-15T22:47:28.138Z,15.18
2018-01-15T22:49:54.945Z,14.87
2018-01-15T22:52:21.787Z,15.27
2018-01-15T22:54:48.627Z,14.70
2018-01-15T22:57:15.434Z,15.32
2018-01-15T22:59:42.545Z,15.23
2018-01-15T23:02:09.357Z,16.37
2018-01-15T23:04:36.185Z,16.00
2018-01-15T23:07:03.050Z,16.15
2018-01-15T23:09:29.886Z,15.05
2018-01-15T23:11:56.693Z,17.10
2018-01-15T23:14:23.541Z,15.77
2018-01-15T23:16:50.396Z,15.80
2018-01-15T23:19:17.371Z,16.23
2018-01-15T23:21:44.544Z,16.48
2018-01-15T23:24:11.358Z,17.55
2018-01-15T23:26:38.174Z,17.05
2018-01-15T23:29:05.277Z,15.98
2018-01-15T23:31:32.150Z,17.90
2018-01-15T23:33:58.999Z,16.95
2018-01-15T23:36:25.870Z,17.40
2018-01-15T23:38:52.710Z,17.80
2018-01-15T23:41:19.801Z,18.45
2018-01-15T23:43:46.677Z,17.35
2018-01-15T23:46:13.481Z,18.70
2018-01-15T23:48:40.319Z,17.00
2018-01-15T23:51:07.382Z,19.30
2018-01-15T23:53:34.535Z,19.10
2018-01-15T23:56:01.414Z,18.83
2018-01-15T23:58:28.527Z,18.77
